Time,TemperatureF,DewpointF,PressureIn,WindDirection,WindDirectionDegrees,WindSpeedMPH,WindSpeedGustMPH,Humidity,HourlyPrecipIn,Conditions,Clouds,dailyrainin,SoftwareType,DateUTC
2013-01-21 00:01:00,56.2,51.8,30.11,ESE,102,0.0,0.0,85,0.00,,OVC070,0.00,VWS V14.01,2013-01-21 05:01:00,
2013-01-21 00:02:00,56.3,51.9,30.11,ESE,102,0.0,0.0,85,0.00,,OVC070,0.00,VWS V14.01,2013-01-21 05:02:00,
2013-01-21 00:03:00,56.3,51.9,30.11,ESE,102,0.0,0.0,85,0.00,,OVC070,0.00,VWS V14.01,2013-01-21 05:03:00,
2013-01-21 00:06:00,56.3,51.9,30.11,ESE,102,0.0,0.0,85,0.00,,OVC070,0.00,VWS V14.01,2013-01-21 05:06:00,
2013-01-21 00:11:00,56.3,51.9,30.11,ESE,102,0.0,0.0,85,0.00,,OVC070,0.00,VWS V14.01,2013-01-21 05:11:00,
2013-01-21 00:17:00,56.1,52.0,30.11,ESE,102,0.0,0.0,86,0.00,,OVC070,0.00,VWS V14.01,2013-01-21 05:17:00,
2013-01-21 00:22:00,56.2,52.1,30.11,ESE,102,0.0,0.0,86,0.00,,OVC070,0.00,VWS V14.01,2013-01-21 05:22:00,
2013-01-21 00:27:00,56.3,52.2,30.11,ESE,102,0.0,0.0,86,0.00,,OVC070,0.00,VWS V14.01,2013-01-21 05:27:00,
2013-01-21 00:32:00,56.3,52.2,30.10,ESE,102,0.0,0.0,86,0.00,,OVC070,0.00,VWS V14.01,2013-01-21 05:32:00,
2013-01-21 00:37:00,56.3,52.2,30.10,ESE,102,0.0,0.0,86,0.00,,OVC070,0.00,VWS V14.01,2013-01-21 05:37:00,
2013-01-21 00:42:00,56.3,52.2,30.10,ESE,102,0.0,0.0,86,0.00,,OVC070,0.00,VWS V14.01,2013-01-21 05:42:00,
2013-01-21 00:47:00,56.3,51.9,30.10,ESE,102,0.0,0.0,85,0.00,,OVC070,0.00,VWS V14.01,2013-01-21 05:47:00,
2013-01-21 00:52:00,56.4,52.0,30.10,ESE,102,0.0,0.0,85,0.00,,OVC070,0.00,VWS V14.01,2013-01-21 05:52:00,
2013-01-21 00:57:00,56.4,52.3,30.11,ESE,102,0.0,0.0,86,0.00,,OVC070,0.00,VWS V14.01,2013-01-21 05:57:00,
2013-01-21 01:02:00,56.5,52.4,30.11,ESE,102,0.0,0.0,86,0.00,,OVC070,0.00,VWS V14.01,2013-01-21 06:02:00,
2013-01-21 01:07:00,56.7,52.6,30.11,ESE,102,0.0,0.0,86,0.00,,OVC070,0.00,VWS V14.01,2013-01-21 06:07:00,
2013-01-21 01:12:00,56.4,52.6,30.10,ESE,102,0.0,0.0,87,0.00,,OVC070,0.00,VWS V14.01,2013-01-21 06:12:00,
2013-01-21 01:18:00,56.2,52.4,30.10,ESE,102,0.0,0.0,87,0.00,,OVC070,0.00,VWS V14.01,2013-01-21 06:18:00,
2013-01-21 01:23:00,56.0,52.2,30.10,ESE,102,0.0,0.0,87,0.00,,OVC070,0.00,VWS V14.01,2013-01-21 06:23:00,
2013-01-21 01:28:00,56.1,52.3,30.10,ESE,102,0.0,0.0,87,0.00,,OVC070,0.00,VWS V14.01,2013-01-21 06:28:00,
2013-01-21 01:33:00,56.1,52.3,30.10,ESE,102,0.0,0.0,87,0.00,,OVC070,0.00,VWS V14.01,2013-01-21 06:33:00,
2013-01-21 01:38:00,56.3,52.8,30.10,ESE,102,0.0,0.0,88,0.00,,OVC070,0.00,VWS V14.01,2013-01-21 06:38:00,
2013-01-21 01:44:00,56.3,52.8,30.09,ESE,102,0.0,0.0,88,0.00,,OVC070,0.00,VWS V14.01,2013-01-21 06:44:00,
2013-01-21 01:49:00,56.2,52.7,30.09,ESE,102,0.0,0.0,88,0.00,,OVC070,0.00,VWS V14.01,2013-01-21 06:49:00,
2013-01-21 01:54:00,56.1,52.6,30.10,ESE,102,0.0,0.0,88,0.00,,OVC070,0.00,VWS V14.01,2013-01-21 06:54:00,
2013-01-21 01:59:00,56.1,52.6,30.09,East,100,0.0,0.0,88,0.00,,OVC070,0.00,VWS V14.01,2013-01-21 06:59:00,
2013-01-21 02:04:00,56.0,52.5,30.09,East,100,0.0,0.0,88,0.00,,OVC070,0.00,VWS V14.01,2013-01-21 07:04:00,
2013-01-21 02:09:00,55.9,52.4,30.09,East,100,0.0,0.0,88,0.00,,OVC070,0.00,VWS V14.01,2013-01-21 07:09:00,
2013-01-21 02:14:00,56.0,52.5,30.09,East,99,0.0,0.0,88,0.00,,OVC070,0.00,VWS V14.01,2013-01-21 07:14:00,
2013-01-21 02:19:00,56.1,52.3,30.09,East,100,0.0,0.0,87,0.00,,OVC070,0.00,VWS V14.01,2013-01-21 07:19:00,
2013-01-21 02:25:00,56.2,52.4,30.09,East,100,0.0,0.0,87,0.00,,OVC070,0.00,VWS V14.01,2013-01-21 07:25:00,
2013-01-21 02:30:00,56.2,52.4,30.09,East,100,0.0,0.0,87,0.00,,OVC070,0.00,VWS V14.01,2013-01-21 07:30:00,
2013-01-21 02:35:00,56.3,52.5,30.08,East,100,0.0,0.0,87,0.00,,OVC070,0.00,VWS V14.01,2013-01-21 07:35:00,
2013-01-21 02:40:00,56.3,52.5,30.09,East,99,0.0,0.0,87,0.00,,OVC070,0.00,VWS V14.01,2013-01-21 07:40:00,
2013-01-21 02:45:00,56.3,52.5,30.09,East,100,0.0,0.0,87,0.00,,OVC070,0.00,VWS V14.01,2013-01-21 07:45:00,
2013-01-21 02:50:00,56.3,52.5,30.08,East,99,0.0,0.0,87,0.00,,OVC070,0.00,VWS V14.01,2013-01-21 07:50:00,
2013-01-21 02:55:00,56.3,52.5,30.08,East,99,0.0,0.0,87,0.00,,OVC070,0.00,VWS V14.01,2013-01-21 07:55:00,
2013-01-21 03:00:00,56.3,52.5,30.08,East,100,0.0,0.0,87,0.00,,OVC070,0.00,VWS V14.01,2013-01-21 08:00:00,
2013-01-21 03:06:00,56.4,52.6,30.08,East,99,0.0,0.0,87,0.00,,OVC070,0.00,VWS V14.01,2013-01-21 08:06:00,
2013-01-21 03:11:00,56.4,52.6,30.08,East,100,0.0,0.0,87,0.00,,OVC070,0.00,VWS V14.01,2013-01-21 08:11:00,
2013-01-21 03:16:00,56.4,52.6,30.08,East,100,0.0,0.0,87,0.00,,OVC070,0.00,VWS V14.01,2013-01-21 08:16:00,
2013-01-21 03:21:00,56.5,52.7,30.08,East,100,0.0,0.0,87,0.00,,OVC070,0.00,VWS V14.01,2013-01-21 08:21:00,
2013-01-21 03:26:00,56.6,52.8,30.08,East,99,0.0,0.0,87,0.00,,OVC070,0.00,VWS V14.01,2013-01-21 08:26:00,
2013-01-21 03:31:00,56.7,52.9,30.08,East,100,0.0,0.0,87,0.00,,OVC070,0.00,VWS V14.01,2013-01-21 08:31:00,
2013-01-21 03:36:00,56.7,52.9,30.08,East,99,0.0,0.0,87,0.00,,OVC070,0.00,VWS V14.01,2013-01-21 08:36:00,
2013-01-21 03:41:00,56.8,53.0,30.08,East,100,0.0,0.0,87,0.00,,OVC070,0.00,VWS V14.01,2013-01-21 08:41:00,
2013-01-21 03:47:00,56.8,53.3,30.08,East,100,0.0,0.0,88,0.00,,OVC070,0.00,VWS V14.01,2013-01-21 08:47:00,
2013-01-21 03:52:00,56.8,53.0,30.08,East,99,0.0,0.0,87,0.00,,OVC070,0.00,VWS V14.01,2013-01-21 08:52:00,
2013-01-21 03:57:00,56.7,52.9,30.08,East,99,0.0,0.0,87,0.00,,OVC070,0.00,VWS V14.01,2013-01-21 08:57:00,
2013-01-21 04:03:00,56.7,52.9,30.07,East,100,0.0,0.0,87,0.00,,OVC070,0.00,VWS V14.01,2013-01-21 09:03:00,
2013-01-21 04:08:00,56.7,53.2,30.07,East,99,0.0,0.0,88,0.00,,OVC070,0.00,VWS V14.01,2013-01-21 09:08:00,
2013-01-21 04:13:00,56.7,53.2,30.07,East,99,0.0,0.0,88,0.00,,OVC070,0.00,VWS V14.01,2013-01-21 09:13:00,
2013-01-21 04:18:00,56.8,53.0,30.07,East,99,0.0,0.0,87,0.00,,OVC070,0.00,VWS V14.01,2013-01-21 09:18:00,
2013-01-21 04:23:00,56.8,53.0,30.07,East,100,0.0,0.0,87,0.00,,OVC070,0.00,VWS V14.01,2013-01-21 09:23:00,
2013-01-21 04:28:00,56.8,53.3,30.06,East,100,0.0,0.0,88,0.00,,OVC070,0.00,VWS V14.01,2013-01-21 09:28:00,
2013-01-21 04:33:00,56.8,53.3,30.06,East,99,0.0,0.0,88,0.00,,OVC070,0.00,VWS V14.01,2013-01-21 09:33:00,
2013-01-21 04:38:00,56.8,53.3,30.06,East,100,0.0,0.0,88,0.00,,OVC070,0.00,VWS V14.01,2013-01-21 09:38:00,
2013-01-21 04:43:00,56.8,53.3,30.06,East,100,0.0,0.0,88,0.00,,OVC070,0.00,VWS V14.01,2013-01-21 09:43:00,
2013-01-21 04:48:00,56.8,53.3,30.06,East,99,0.0,0.0,88,0.00,,OVC070,0.00,VWS V14.01,2013-01-21 09:48:00,
2013-01-21 04:53:00,56.8,53.3,30.05,East,100,0.0,0.0,88,0.00,,OVC070,0.00,VWS V14.01,2013-01-21 09:53:00,
2013-01-21 04:58:00,56.9,53.4,30.06,East,100,0.0,0.0,88,0.00,,OVC070,0.00,VWS V14.01,2013-01-21 09:58:00,
2013-01-21 05:03:00,57.0,53.5,30.07,East,100,0.0,0.0,88,0.00,,OVC070,0.00,VWS V14.01,2013-01-21 10:03:00,
2013-01-21 05:09:00,57.0,53.5,30.06,East,100,0.0,0.0,88,0.00,,OVC070,0.00,VWS V14.01,2013-01-21 10:09:00,
2013-01-21 05:14:00,56.9,53.4,30.07,East,100,0.0,0.0,88,0.00,,OVC070,0.00,VWS V14.01,2013-01-21 10:14:00,
2013-01-21 05:19:00,56.8,53.3,30.06,East,99,0.0,0.0,88,0.00,,OVC070,0.00,VWS V14.01,2013-01-21 10:19:00,
2013-01-21 05:24:00,56.8,53.3,30.06,East,100,0.0,0.0,88,0.00,,OVC070,0.00,VWS V14.01,2013-01-21 10:24:00,
2013-01-21 05:29:00,56.7,53.2,30.07,East,99,0.0,0.0,88,0.00,,OVC070,0.00,VWS V14.01,2013-01-21 10:29:00,
2013-01-21 05:34:00,56.8,53.3,30.07,East,100,0.0,0.0,88,0.00,,OVC070,0.00,VWS V14.01,2013-01-21 10:34:00,
2013-01-21 05:39:00,56.8,53.3,30.07,East,100,0.0,0.0,88,0.00,,OVC070,0.00,VWS V14.01,2013-01-21 10:39:00,
2013-01-21 05:44:00,56.8,53.3,30.07,East,99,0.0,0.0,88,0.00,,OVC070,0.00,VWS V14.01,2013-01-21 10:44:00,
2013-01-21 05:50:00,56.8,53.3,30.06,East,100,0.0,0.0,88,0.00,,OVC070,0.00,VWS V14.01,2013-01-21 10:50:00,
2013-01-21 05:55:00,56.8,53.3,30.07,East,99,0.0,0.0,88,0.00,,OVC070,0.00,VWS V14.01,2013-01-21 10:55:00,
2013-01-21 06:00:00,56.7,53.2,30.07,East,100,0.0,0.0,88,0.00,,OVC070,0.00,VWS V14.01,2013-01-21 11:00:00,
2013-01-21 06:05:00,56.6,53.1,30.07,East,100,0.0,0.0,88,0.00,,OVC070,0.00,VWS V14.01,2013-01-21 11:05:00,
2013-01-21 06:10:00,56.5,53.3,30.07,East,100,0.0,0.0,89,0.00,,OVC070,0.00,VWS V14.01,2013-01-21 11:10:00,
2013-01-21 06:15:00,56.4,53.2,30.06,East,99,0.0,0.0,89,0.00,,OVC070,0.00,VWS V14.01,2013-01-21 11:15:00,
2013-01-21 06:20:00,56.3,53.1,30.06,East,99,0.0,0.0,89,0.00,,OVC070,0.00,VWS V14.01,2013-01-21 11:20:00,
2013-01-21 06:25:00,56.2,53.0,30.07,East,99,0.0,0.0,89,0.00,,OVC070,0.00,VWS V14.01,2013-01-21 11:25:00,
2013-01-21 06:30:00,56.2,53.0,30.07,East,100,0.0,0.0,89,0.00,,OVC070,0.00,VWS V14.01,2013-01-21 11:30:00,
2013-01-21 06:36:00,56.1,52.9,30.07,East,100,0.0,0.0,89,0.00,,OVC070,0.00,VWS V14.01,2013-01-21 11:36:00,
2013-01-21 06:41:00,56.1,52.9,30.07,East,100,0.0,0.0,89,0.00,,OVC070,0.00,VWS V14.01,2013-01-21 11:41:00,
2013-01-21 06:46:00,56.0,52.8,30.08,East,100,0.0,0.0,89,0.00,,OVC070,0.00,VWS V14.01,2013-01-21 11:46:00,
2013-01-21 06:51:00,55.9,52.7,30.08,East,100,0.0,0.0,89,0.00,,OVC070,0.00,VWS V14.01,2013-01-21 11:51:00,
2013-01-21 06:56:00,55.7,52.8,30.08,East,100,0.0,0.0,90,0.00,,OVC070,0.00,VWS V14.01,2013-01-21 11:56:00,
2013-01-21 07:01:00,55.6,52.7,30.09,East,100,0.0,0.0,90,0.00,,OVC070,0.00,VWS V14.01,2013-01-21 12:01:00,
2013-01-21 07:06:00,55.6,52.7,30.09,East,100,0.0,0.0,90,0.00,,OVC070,0.00,VWS V14.01,2013-01-21 12:06:00,
2013-01-21 07:11:00,55.6,52.7,30.09,East,99,0.0,0.0,90,0.00,,OVC070,0.00,VWS V14.01,2013-01-21 12:11:00,
2013-01-21 07:16:00,55.6,52.7,30.09,East,100,0.0,0.0,90,0.00,,OVC070,0.00,VWS V14.01,2013-01-21 12:16:00,
2013-01-21 07:21:00,55.7,52.8,30.09,East,99,0.0,0.0,90,0.00,,OVC070,0.00,VWS V14.01,2013-01-21 12:21:00,
2013-01-21 07:26:00,55.8,52.9,30.09,East,100,0.0,0.0,90,0.00,,OVC070,0.00,VWS V14.01,2013-01-21 12:26:00,
2013-01-21 07:31:00,55.9,52.7,30.09,East,99,0.0,0.0,89,0.00,,OVC070,0.00,VWS V14.01,2013-01-21 12:31:00,
2013-01-21 07:36:00,56.1,53.2,30.09,East,99,0.0,0.0,90,0.00,,OVC070,0.00,VWS V14.01,2013-01-21 12:36:00,
2013-01-21 07:41:00,56.2,53.3,30.10,East,100,0.0,0.0,90,0.00,,OVC070,0.00,VWS V14.01,2013-01-21 12:41:00,
2013-01-21 07:46:00,56.3,53.1,30.10,East,99,0.0,0.0,89,0.00,,OVC070,0.00,VWS V14.01,2013-01-21 12:46:00,
2013-01-21 07:51:00,56.5,53.3,30.10,East,100,0.0,0.0,89,0.00,,OVC070,0.00,VWS V14.01,2013-01-21 12:51:00,
2013-01-21 07:56:00,56.7,53.5,30.10,East,84,0.0,2.0,89,0.00,,OVC070,0.00,VWS V14.01,2013-01-21 12:56:00,
2013-01-21 08:01:00,56.9,53.4,30.11,East,84,0.0,0.0,88,0.00,,OVC075,0.00,VWS V14.01,2013-01-21 13:01:00,
2013-01-21 08:06:00,57.2,53.4,30.10,East,83,0.0,0.0,87,0.00,,OVC075,0.00,VWS V14.01,2013-01-21 13:06:00,
2013-01-21 08:11:00,57.4,53.6,30.10,East,84,0.0,0.0,87,0.00,,OVC075,0.00,VWS V14.01,2013-01-21 13:11:00,
2013-01-21 08:16:00,57.6,53.8,30.11,East,84,0.0,0.0,87,0.00,,OVC075,0.00,VWS V14.01,2013-01-21 13:16:00,
2013-01-21 08:21:00,57.9,53.7,30.10,ENE,60,1.0,4.0,86,0.00,,OVC075,0.00,VWS V14.01,2013-01-21 13:21:00,
2013-01-21 08:26:00,58.1,53.6,30.11,NE,49,2.0,5.0,85,0.00,,OVC075,0.00,VWS V14.01,2013-01-21 13:26:00,
2013-01-21 08:31:00,58.5,54.0,30.11,NE,49,0.0,0.0,85,0.00,,OVC075,0.00,VWS V14.01,2013-01-21 13:31:00,
2013-01-21 08:36:00,58.8,54.0,30.12,NE,49,0.0,0.0,84,0.00,,OVC075,0.00,VWS V14.01,2013-01-21 13:36:00,
2013-01-21 08:41:00,59.2,54.4,30.12,NE,49,0.0,0.0,84,0.00,,OVC075,0.00,VWS V14.01,2013-01-21 13:41:00,
2013-01-21 08:46:00,59.5,54.0,30.12,North,5,0.0,0.0,82,0.00,,OVC075,0.00,VWS V14.01,2013-01-21 13:46:00,
2013-01-21 08:51:00,59.9,54.4,30.11,NE,41,0.0,4.0,82,0.00,,OVC075,0.00,VWS V14.01,2013-01-21 13:51:00,
2013-01-21 08:56:00,60.3,54.5,30.11,NE,41,0.0,4.0,81,0.00,,OVC075,0.00,VWS V14.01,2013-01-21 13:56:00,
2013-01-21 09:01:00,61.2,54.6,30.12,ENE,64,4.0,7.0,79,0.00,,OVC075,0.00,VWS V14.01,2013-01-21 14:01:00,
2013-01-21 09:06:00,61.5,54.6,30.11,NNE,25,3.0,8.0,78,0.00,,OVC075,0.00,VWS V14.01,2013-01-21 14:06:00,
2013-01-21 09:11:00,61.6,54.7,30.11,ENE,59,1.0,8.0,78,0.00,,OVC075,0.00,VWS V14.01,2013-01-21 14:11:00,
2013-01-21 09:16:00,61.7,54.8,30.11,NNE,15,4.0,8.0,78,0.00,,OVC075,0.00,VWS V14.01,2013-01-21 14:16:00,
2013-01-21 09:21:00,62.2,54.9,30.11,ENE,62,3.0,8.0,77,0.00,,OVC075,0.00,VWS V14.01,2013-01-21 14:21:00,
2013-01-21 09:26:00,62.7,55.0,30.12,North,11,6.0,8.0,76,0.00,,OVC075,0.00,VWS V14.01,2013-01-21 14:26:00,
2013-01-21 09:32:00,63.6,55.2,30.12,North,9,0.0,6.0,74,0.00,,OVC075,0.00,VWS V14.01,2013-01-21 14:32:00,
2013-01-21 09:37:00,64.2,55.4,30.12,NE,45,0.0,6.0,73,0.00,,OVC075,0.00,VWS V14.01,2013-01-21 14:37:00,
2013-01-21 09:42:00,65.2,56.0,30.12,NE,53,4.0,6.0,72,0.00,,OVC075,0.00,VWS V14.01,2013-01-21 14:42:00,
2013-01-21 09:47:00,65.8,55.8,30.12,NE,52,0.0,6.0,70,0.00,,OVC075,0.00,VWS V14.01,2013-01-21 14:47:00,
2013-01-21 09:52:00,66.1,56.0,30.12,North,9,3.0,6.0,70,0.00,,OVC075,0.00,VWS V14.01,2013-01-21 14:52:00,
2013-01-21 09:57:00,66.4,56.3,30.12,North,10,3.0,10.0,70,0.00,,OVC075,0.00,VWS V14.01,2013-01-21 14:57:00,
2013-01-21 10:02:00,66.8,56.3,30.12,North,360,3.0,4.0,69,0.00,,OVC075,0.00,VWS V14.01,2013-01-21 15:02:00,
2013-01-21 10:07:00,66.9,56.0,30.12,North,355,4.0,9.0,68,0.00,,OVC075,0.00,VWS V14.01,2013-01-21 15:07:00,
2013-01-21 10:12:00,67.3,56.4,30.12,NNE,30,1.0,9.0,68,0.00,,OVC075,0.00,VWS V14.01,2013-01-21 15:12:00,
2013-01-21 10:17:00,68.4,57.0,30.12,NNE,17,0.0,9.0,67,0.00,,OVC075,0.00,VWS V14.01,2013-01-21 15:17:00,
2013-01-21 10:22:00,69.3,57.0,30.12,NNE,21,4.0,9.0,65,0.00,,OVC075,0.00,VWS V14.01,2013-01-21 15:22:00,
2013-01-21 10:27:00,69.4,56.7,30.12,NE,40,4.0,9.0,64,0.00,,OVC075,0.00,VWS V14.01,2013-01-21 15:27:00,
2013-01-21 10:32:00,69.6,56.9,30.12,NNE,21,1.0,6.0,64,0.00,,OVC075,0.00,VWS V14.01,2013-01-21 15:32:00,
2013-01-21 10:37:00,70.2,56.6,30.13,ENE,57,1.0,6.0,62,0.00,,OVC075,0.00,VWS V14.01,2013-01-21 15:37:00,
2013-01-21 10:42:00,70.9,57.2,30.13,ENE,57,0.0,6.0,62,0.00,,OVC075,0.00,VWS V14.01,2013-01-21 15:42:00,
2013-01-21 10:47:00,71.3,57.2,30.12,ENE,57,0.0,6.0,61,0.00,,OVC075,0.00,VWS V14.01,2013-01-21 15:47:00,
2013-01-21 10:52:00,70.7,57.1,30.13,NNE,29,0.0,7.0,62,0.00,,OVC075,0.00,VWS V14.01,2013-01-21 15:52:00,
2013-01-21 10:57:00,70.7,56.6,30.13,North,9,3.0,7.0,61,0.00,,OVC075,0.00,VWS V14.01,2013-01-21 15:57:00,
2013-01-21 11:02:00,70.8,56.7,30.13,NNE,33,0.0,1.0,61,0.00,,OVC075,0.00,VWS V14.01,2013-01-21 16:02:00,
2013-01-21 11:07:00,71.3,56.7,30.13,NE,45,0.0,5.0,60,0.00,,OVC075,0.00,VWS V14.01,2013-01-21 16:07:00,
2013-01-21 11:12:00,72.2,57.6,30.13,ENE,61,0.0,7.0,60,0.00,,OVC075,0.00,VWS V14.01,2013-01-21 16:12:00,
2013-01-21 11:17:00,72.5,57.8,30.12,NE,55,4.0,7.0,60,0.00,,OVC075,0.00,VWS V14.01,2013-01-21 16:17:00,
2013-01-21 11:22:00,73.4,56.8,30.12,East,82,0.0,7.0,56,0.00,,OVC075,0.00,VWS V14.01,2013-01-21 16:22:00,
2013-01-21 11:27:00,73.5,56.9,30.12,North,355,4.0,7.0,56,0.00,,OVC075,0.00,VWS V14.01,2013-01-21 16:27:00,
2013-01-21 11:32:00,73.3,55.7,30.12,NE,53,4.0,6.0,54,0.00,,OVC075,0.00,VWS V14.01,2013-01-21 16:32:00,
2013-01-21 11:37:00,73.0,55.4,30.12,ENE,59,0.0,6.0,54,0.00,,OVC075,0.00,VWS V14.01,2013-01-21 16:37:00,
2013-01-21 11:42:00,73.8,56.1,30.11,ENE,57,0.0,6.0,54,0.00,,OVC075,0.00,VWS V14.01,2013-01-21 16:42:00,
2013-01-21 11:47:00,73.9,55.7,30.10,North,360,0.0,6.0,53,0.00,,OVC075,0.00,VWS V14.01,2013-01-21 16:47:00,
2013-01-21 11:52:00,72.7,55.1,30.10,North,9,0.0,6.0,54,0.00,,OVC075,0.00,VWS V14.01,2013-01-21 16:52:00,
2013-01-21 11:57:00,73.8,56.6,30.09,ENE,67,0.0,6.0,55,0.00,,OVC075,0.00,VWS V14.01,2013-01-21 16:57:00,
2013-01-21 12:02:00,74.1,56.4,30.09,NE,43,0.0,3.0,54,0.00,,OVC075,0.00,VWS V14.01,2013-01-21 17:02:00,
2013-01-21 12:07:00,74.6,56.9,30.09,NE,43,0.0,3.0,54,0.00,,OVC075,0.00,VWS V14.01,2013-01-21 17:07:00,
2013-01-21 12:12:00,75.2,56.9,30.09,North,5,2.0,7.0,53,0.00,,OVC075,0.00,VWS V14.01,2013-01-21 17:12:00,
2013-01-21 12:17:00,75.5,57.7,30.09,NW,319,5.0,7.0,54,0.00,,OVC075,0.00,VWS V14.01,2013-01-21 17:17:00,
2013-01-21 12:22:00,74.4,56.7,30.08,WNW,287,0.0,7.0,54,0.00,,OVC075,0.00,VWS V14.01,2013-01-21 17:22:00,
2013-01-21 12:27:00,74.6,57.4,30.08,NW,304,5.0,7.0,55,0.00,,OVC075,0.00,VWS V14.01,2013-01-21 17:27:00,
2013-01-21 12:32:00,74.8,57.1,30.08,NNW,348,1.0,5.0,54,0.00,,OVC075,0.00,VWS V14.01,2013-01-21 17:32:00,
2013-01-21 12:37:00,73.5,56.4,30.08,North,355,0.0,7.0,55,0.00,,OVC075,0.00,VWS V14.01,2013-01-21 17:37:00,
2013-01-21 12:42:00,75.3,58.0,30.07,North,355,0.0,7.0,55,0.00,,OVC075,0.00,VWS V14.01,2013-01-21 17:42:00,
2013-01-21 12:47:00,75.9,58.1,30.07,NNE,28,1.0,7.0,54,0.00,,OVC075,0.00,VWS V14.01,2013-01-21 17:47:00,
2013-01-21 12:52:00,76.5,58.1,30.06,NE,36,6.0,7.0,53,0.00,,OVC075,0.00,VWS V14.01,2013-01-21 17:52:00,
2013-01-21 12:58:00,77.2,57.7,30.06,East,82,1.0,7.0,51,0.00,,OVC075,0.00,VWS V14.01,2013-01-21 17:58:00,
2013-01-21 13:03:00,76.7,58.3,30.05,SE,135,1.0,4.0,53,0.00,,OVC075,0.00,VWS V14.01,2013-01-21 18:03:00,
2013-01-21 13:08:00,76.5,57.6,30.05,ENE,74,2.0,5.0,52,0.00,,OVC075,0.00,VWS V14.01,2013-01-21 18:08:00,
2013-01-21 13:13:00,76.1,57.2,30.05,ENE,72,3.0,5.0,52,0.00,,OVC075,0.00,VWS V14.01,2013-01-21 18:13:00,
2013-01-21 13:18:00,75.4,57.6,30.05,NNE,26,1.0,5.0,54,0.00,,OVC075,0.00,VWS V14.01,2013-01-21 18:18:00,
2013-01-21 13:23:00,74.5,57.3,30.04,North,360,3.0,5.0,55,0.00,,OVC075,0.00,VWS V14.01,2013-01-21 18:23:00,
2013-01-21 13:28:00,75.3,57.5,30.05,NE,42,0.0,5.0,54,0.00,,OVC075,0.00,VWS V14.01,2013-01-21 18:28:00,
2013-01-21 13:33:00,75.1,56.8,30.04,North,5,0.0,10.0,53,0.00,,OVC075,0.00,VWS V14.01,2013-01-21 18:33:00,
2013-01-21 13:38:00,74.5,56.8,30.04,NE,40,1.0,10.0,54,0.00,,OVC075,0.00,VWS V14.01,2013-01-21 18:38:00,
2013-01-21 13:43:00,74.2,57.0,30.04,NE,44,5.0,10.0,55,0.00,,OVC075,0.00,VWS V14.01,2013-01-21 18:43:00,
2013-01-21 13:48:00,74.1,56.9,30.04,ENE,60,2.0,10.0,55,0.00,,OVC075,0.00,VWS V14.01,2013-01-21 18:48:00,
2013-01-21 13:53:00,74.3,57.1,30.04,NE,37,2.0,10.0,55,0.00,,OVC075,0.00,VWS V14.01,2013-01-21 18:53:00,
2013-01-21 13:58:00,74.2,57.0,30.04,NNE,15,3.0,10.0,55,0.00,,OVC075,0.00,VWS V14.01,2013-01-21 18:58:00,
2013-01-21 14:03:00,73.7,57.0,30.04,NW,323,0.0,5.0,56,0.00,,OVC075,0.00,VWS V14.01,2013-01-21 19:03:00,
2013-01-21 14:08:00,74.0,57.3,30.04,NNE,19,3.0,6.0,56,0.00,,OVC075,0.00,VWS V14.01,2013-01-21 19:08:00,
2013-01-21 14:13:00,73.8,56.6,30.03,ENE,63,0.0,6.0,55,0.00,,OVC075,0.00,VWS V14.01,2013-01-21 19:13:00,
2013-01-21 14:18:00,73.7,56.5,30.04,NNE,19,5.0,6.0,55,0.00,,OVC075,0.00,VWS V14.01,2013-01-21 19:18:00,
2013-01-21 14:23:00,73.2,56.1,30.03,NNE,17,0.0,7.0,55,0.00,,OVC075,0.00,VWS V14.01,2013-01-21 19:23:00,
2013-01-21 14:28:00,73.5,56.9,30.03,ENE,61,0.0,7.0,56,0.00,,OVC075,0.00,VWS V14.01,2013-01-21 19:28:00,
2013-01-21 14:33:00,74.3,57.1,30.03,NNE,17,4.0,6.0,55,0.00,,OVC075,0.00,VWS V14.01,2013-01-21 19:33:00,
2013-01-21 14:38:00,74.5,56.8,30.02,NE,44,5.0,7.0,54,0.00,,OVC075,0.00,VWS V14.01,2013-01-21 19:38:00,
2013-01-21 14:44:00,75.3,57.0,30.02,NNE,28,4.0,7.0,53,0.00,,OVC075,0.00,VWS V14.01,2013-01-21 19:44:00,
2013-01-21 14:49:00,74.3,56.1,30.02,NNW,342,5.0,11.0,53,0.00,,OVC075,0.00,VWS V14.01,2013-01-21 19:49:00,
2013-01-21 14:54:00,74.8,56.5,30.03,NNE,26,5.0,11.0,53,0.00,,OVC075,0.00,VWS V14.01,2013-01-21 19:54:00,
2013-01-21 14:59:00,74.9,56.6,30.02,North,350,0.0,11.0,53,0.00,,OVC075,0.00,VWS V14.01,2013-01-21 19:59:00,
2013-01-21 15:04:00,74.3,56.6,30.02,NNW,346,5.0,6.0,54,0.00,,OVC075,0.00,VWS V14.01,2013-01-21 20:04:00,
2013-01-21 15:09:00,74.4,56.7,30.02,NNW,348,1.0,7.0,54,0.00,,OVC075,0.00,VWS V14.01,2013-01-21 20:09:00,
2013-01-21 15:14:00,74.7,57.0,30.02,North,355,0.0,7.0,54,0.00,,OVC075,0.00,VWS V14.01,2013-01-21 20:14:00,
2013-01-21 15:19:00,75.4,56.6,30.03,NW,314,6.0,9.0,52,0.00,,OVC075,0.00,VWS V14.01,2013-01-21 20:19:00,
2013-01-21 15:24:00,75.6,57.3,30.03,North,360,5.0,9.0,53,0.00,,OVC075,0.00,VWS V14.01,2013-01-21 20:24:00,
2013-01-21 15:29:00,75.1,57.3,30.03,NNW,333,5.0,11.0,54,0.00,,OVC075,0.00,VWS V14.01,2013-01-21 20:29:00,
2013-01-21 15:34:00,75.2,56.4,30.03,NW,323,0.0,8.0,52,0.00,,OVC075,0.00,VWS V14.01,2013-01-21 20:34:00,
2013-01-21 15:39:00,74.1,55.9,30.03,North,355,0.0,10.0,53,0.00,,OVC075,0.00,VWS V14.01,2013-01-21 20:39:00,
2013-01-21 15:44:00,73.2,55.6,30.03,NNW,338,2.0,10.0,54,0.00,,OVC075,0.00,VWS V14.01,2013-01-21 20:44:00,
2013-01-21 15:49:00,72.8,55.7,30.03,NNW,340,6.0,10.0,55,0.00,,OVC075,0.00,VWS V14.01,2013-01-21 20:49:00,
2013-01-21 15:54:00,72.9,56.3,30.03,NNW,336,0.0,10.0,56,0.00,,OVC075,0.00,VWS V14.01,2013-01-21 20:54:00,
2013-01-21 15:59:00,72.9,55.8,30.03,NW,322,0.0,10.0,55,0.00,,OVC075,0.00,VWS V14.01,2013-01-21 20:59:00,
2013-01-21 16:04:00,73.6,56.5,30.03,NNE,19,0.0,7.0,55,0.00,,OVC075,0.00,VWS V14.01,2013-01-21 21:04:00,
2013-01-21 16:09:00,74.3,56.6,30.03,NNW,334,6.0,7.0,54,0.00,,OVC075,0.00,VWS V14.01,2013-01-21 21:09:00,
2013-01-21 16:14:00,74.4,56.7,30.03,NW,321,6.0,9.0,54,0.00,,OVC075,0.00,VWS V14.01,2013-01-21 21:14:00,
2013-01-21 16:19:00,74.7,56.5,30.03,NNW,341,0.0,9.0,53,0.00,,OVC075,0.00,VWS V14.01,2013-01-21 21:19:00,
2013-01-21 16:24:00,74.5,56.3,30.03,NNW,342,0.0,9.0,53,0.00,,OVC075,0.00,VWS V14.01,2013-01-21 21:24:00,
2013-01-21 16:29:00,74.1,56.4,30.03,NNW,337,7.0,9.0,54,0.00,,OVC075,0.00,VWS V14.01,2013-01-21 21:29:00,
2013-01-21 16:34:00,72.9,56.3,30.03,NNW,335,7.0,9.0,56,0.00,,OVC075,0.00,VWS V14.01,2013-01-21 21:34:00,
2013-01-21 16:39:00,72.2,56.1,30.03,North,360,0.0,9.0,57,0.00,,OVC075,0.00,VWS V14.01,2013-01-21 21:39:00,
2013-01-21 16:44:00,71.7,56.2,30.03,North,360,3.0,9.0,58,0.00,,OVC075,0.00,VWS V14.01,2013-01-21 21:44:00,
2013-01-21 16:49:00,71.6,56.1,30.03,NNW,345,5.0,9.0,58,0.00,,OVC075,0.00,VWS V14.01,2013-01-21 21:49:00,
2013-01-21 16:54:00,71.3,56.2,30.03,NNW,344,4.0,10.0,59,0.00,,OVC075,0.00,VWS V14.01,2013-01-21 21:54:00,
2013-01-21 16:59:00,71.0,56.0,30.04,North,350,4.0,10.0,59,0.00,,OVC075,0.00,VWS V14.01,2013-01-21 21:59:00,
2013-01-21 17:04:00,70.8,56.2,30.04,NNW,333,5.0,10.0,60,0.00,,OVC075,0.00,VWS V14.01,2013-01-21 22:04:00,
2013-01-21 17:09:00,70.5,56.4,30.04,North,355,7.0,10.0,61,0.00,,OVC075,0.00,VWS V14.01,2013-01-21 22:09:00,
2013-01-21 17:14:00,70.2,56.6,30.03,North,350,6.0,10.0,62,0.00,,OVC075,0.00,VWS V14.01,2013-01-21 22:14:00,
2013-01-21 17:20:00,70.0,56.4,30.04,NNW,347,6.0,10.0,62,0.00,,OVC075,0.00,VWS V14.01,2013-01-21 22:20:00,
2013-01-21 17:25:00,69.6,56.5,30.03,North,355,0.0,10.0,63,0.00,,OVC075,0.00,VWS V14.01,2013-01-21 22:25:00,
2013-01-21 17:30:00,69.3,56.6,30.03,North,350,5.0,7.0,64,0.00,,OVC075,0.00,VWS V14.01,2013-01-21 22:30:00,
2013-01-21 17:35:00,69.1,56.4,30.04,NNW,331,6.0,9.0,64,0.00,,OVC075,0.00,VWS V14.01,2013-01-21 22:35:00,
2013-01-21 17:40:00,68.8,56.1,30.04,North,355,7.0,9.0,64,0.00,,OVC075,0.00,VWS V14.01,2013-01-21 22:40:00,
2013-01-21 17:45:00,68.5,56.3,30.04,NNW,330,0.0,9.0,65,0.00,,OVC075,0.00,VWS V14.01,2013-01-21 22:45:00,
2013-01-21 17:50:00,68.3,56.1,30.04,NNW,337,0.0,9.0,65,0.00,,OVC075,0.00,VWS V14.01,2013-01-21 22:50:00,
2013-01-21 17:55:00,68.0,56.2,30.04,NNW,343,4.0,9.0,66,0.00,,OVC075,0.00,VWS V14.01,2013-01-21 22:55:00,
2013-01-21 18:00:00,67.8,56.0,30.04,NNW,327,0.0,0.0,66,0.00,,OVC075,0.00,VWS V14.01,2013-01-21 23:00:00,
2013-01-21 18:05:00,67.6,56.3,30.04,NW,326,0.0,4.0,67,0.00,,OVC075,0.00,VWS V14.01,2013-01-21 23:05:00,
2013-01-21 18:10:00,67.4,56.1,30.04,NW,314,0.0,5.0,67,0.00,,OVC075,0.00,VWS V14.01,2013-01-21 23:10:00,
2013-01-21 18:15:00,67.2,55.9,30.04,NNW,342,0.0,5.0,67,0.00,,OVC075,0.00,VWS V14.01,2013-01-21 23:15:00,
2013-01-21 18:20:00,67.0,56.1,30.05,NNW,342,0.0,5.0,68,0.00,,OVC075,0.00,VWS V14.01,2013-01-21 23:20:00,
2013-01-21 18:25:00,66.8,55.9,30.04,NNW,342,0.0,5.0,68,0.00,,OVC075,0.00,VWS V14.01,2013-01-21 23:25:00,
2013-01-21 18:30:00,66.6,55.7,30.04,NNW,338,0.0,0.0,68,0.00,,OVC075,0.00,VWS V14.01,2013-01-21 23:30:00,
2013-01-21 18:35:00,66.3,55.4,30.05,NNW,338,0.0,0.0,68,0.00,,OVC075,0.00,VWS V14.01,2013-01-21 23:35:00,
2013-01-21 18:40:00,66.1,55.7,30.05,NNW,338,0.0,4.0,69,0.00,,OVC075,0.00,VWS V14.01,2013-01-21 23:40:00,
2013-01-21 18:45:00,66.0,55.5,30.05,NNW,338,2.0,5.0,69,0.00,,OVC075,0.00,VWS V14.01,2013-01-21 23:45:00,
2013-01-21 18:50:00,65.7,55.3,30.05,NW,323,0.0,5.0,69,0.00,,OVC075,0.00,VWS V14.01,2013-01-21 23:50:00,
2013-01-21 18:55:00,65.5,55.1,30.06,NW,314,0.0,5.0,69,0.00,,OVC075,0.00,VWS V14.01,2013-01-21 23:55:00,
2013-01-21 19:00:00,65.3,54.9,30.06,NNW,328,0.0,0.0,69,0.00,,OVC075,0.00,VWS V14.01,2013-01-22 00:00:00,
2013-01-21 19:05:00,65.1,54.7,30.06,NNW,338,0.0,0.0,69,0.00,,OVC075,0.00,VWS V14.01,2013-01-22 00:05:00,
2013-01-21 19:10:00,64.9,54.5,30.06,NNW,337,0.0,0.0,69,0.00,,OVC075,0.00,VWS V14.01,2013-01-22 00:10:00,
2013-01-21 19:15:00,64.7,54.7,30.06,NNW,341,0.0,0.0,70,0.00,,OVC075,0.00,VWS V14.01,2013-01-22 00:15:00,
2013-01-21 19:20:00,64.5,54.5,30.06,NNW,342,0.0,1.0,70,0.00,,OVC075,0.00,VWS V14.01,2013-01-22 00:20:00,
2013-01-21 19:25:00,64.3,54.7,30.06,NNW,343,0.0,1.0,71,0.00,,OVC075,0.00,VWS V14.01,2013-01-22 00:25:00,
2013-01-21 19:30:00,64.1,54.5,30.06,NNW,343,0.0,0.0,71,0.00,,OVC075,0.00,VWS V14.01,2013-01-22 00:30:00,
2013-01-21 19:35:00,64.0,54.4,30.06,NNW,342,0.0,0.0,71,0.00,,OVC075,0.00,VWS V14.01,2013-01-22 00:35:00,
2013-01-21 19:40:00,63.7,54.5,30.06,NNW,342,0.0,0.0,72,0.00,,OVC075,0.00,VWS V14.01,2013-01-22 00:40:00,
2013-01-21 19:46:00,63.5,54.3,30.06,NNW,343,0.0,0.0,72,0.00,,OVC075,0.00,VWS V14.01,2013-01-22 00:46:00,
2013-01-21 19:51:00,63.2,54.4,30.06,NNW,343,0.0,0.0,73,0.00,,OVC075,0.00,VWS V14.01,2013-01-22 00:51:00,
2013-01-21 19:56:00,63.0,54.2,30.07,NNW,343,0.0,0.0,73,0.00,,OVC075,0.00,VWS V14.01,2013-01-22 00:56:00,
2013-01-21 20:01:00,62.9,54.1,30.06,NNW,343,0.0,0.0,73,0.00,,OVC075,0.00,VWS V14.01,2013-01-22 01:01:00,
2013-01-21 20:06:00,62.8,54.0,30.06,NNW,343,0.0,0.0,73,0.00,,OVC075,0.00,VWS V14.01,2013-01-22 01:06:00,
2013-01-21 20:11:00,62.6,53.8,30.06,NNW,343,0.0,0.0,73,0.00,,OVC075,0.00,VWS V14.01,2013-01-22 01:11:00,
2013-01-21 20:16:00,62.4,53.6,30.06,NNW,342,0.0,0.0,73,0.00,,OVC075,0.00,VWS V14.01,2013-01-22 01:16:00,
2013-01-21 20:21:00,62.2,53.8,30.06,NNW,343,0.0,0.0,74,0.00,,OVC075,0.00,VWS V14.01,2013-01-22 01:21:00,
2013-01-21 20:26:00,61.9,53.5,30.07,NNW,342,0.0,0.0,74,0.00,,OVC075,0.00,VWS V14.01,2013-01-22 01:26:00,
2013-01-21 20:31:00,61.8,53.8,30.07,NNW,344,0.0,0.0,75,0.00,,OVC075,0.00,VWS V14.01,2013-01-22 01:31:00,
2013-01-21 20:36:00,61.7,53.3,30.07,NNW,344,0.0,0.0,74,0.00,,OVC075,0.00,VWS V14.01,2013-01-22 01:36:00,
2013-01-21 20:41:00,61.6,53.2,30.07,NNW,344,0.0,0.0,74,0.00,,OVC075,0.00,VWS V14.01,2013-01-22 01:41:00,
2013-01-21 20:46:00,61.5,53.2,30.07,NNW,344,0.0,0.0,74,0.00,,OVC075,0.00,VWS V14.01,2013-01-22 01:46:00,
2013-01-21 20:51:00,61.3,53.3,30.08,NNW,344,0.0,0.0,75,0.00,,OVC075,0.00,VWS V14.01,2013-01-22 01:51:00,
2013-01-21 20:56:00,61.0,53.0,30.08,NNW,344,0.0,0.0,75,0.00,,OVC075,0.00,VWS V14.01,2013-01-22 01:56:00,
2013-01-21 21:01:00,60.7,53.1,30.08,NNW,344,0.0,0.0,76,0.00,,OVC075,0.00,VWS V14.01,2013-01-22 02:01:00,
2013-01-21 21:06:00,60.5,52.9,30.08,NNW,344,0.0,0.0,76,0.00,,OVC075,0.00,VWS V14.01,2013-01-22 02:06:00,
2013-01-21 21:11:00,60.4,53.2,30.09,NNW,344,0.0,0.0,77,0.00,,OVC075,0.00,VWS V14.01,2013-01-22 02:11:00,
2013-01-21 21:16:00,60.1,52.9,30.09,NNW,344,0.0,0.0,77,0.00,,OVC075,0.00,VWS V14.01,2013-01-22 02:16:00,
2013-01-21 21:21:00,60.0,52.8,30.09,NNW,344,0.0,0.0,77,0.00,,OVC075,0.00,VWS V14.01,2013-01-22 02:21:00,
2013-01-21 21:26:00,60.1,52.9,30.09,NNW,344,0.0,0.0,77,0.00,,OVC075,0.00,VWS V14.01,2013-01-22 02:26:00,
2013-01-21 21:31:00,60.1,52.5,30.09,NNW,344,0.0,0.0,76,0.00,,OVC075,0.00,VWS V14.01,2013-01-22 02:31:00,
2013-01-21 21:36:00,60.1,52.5,30.09,NNW,344,0.0,0.0,76,0.00,,OVC075,0.00,VWS V14.01,2013-01-22 02:36:00,
2013-01-21 21:41:00,60.1,52.5,30.09,NNW,344,0.0,0.0,76,0.00,,OVC075,0.00,VWS V14.01,2013-01-22 02:41:00,
2013-01-21 21:46:00,60.0,52.4,30.09,NNW,344,0.0,0.0,76,0.00,,OVC075,0.00,VWS V14.01,2013-01-22 02:46:00,
2013-01-21 21:51:00,60.0,52.4,30.10,NNW,344,0.0,0.0,76,0.00,,OVC075,0.00,VWS V14.01,2013-01-22 02:51:00,
2013-01-21 21:56:00,59.9,52.3,30.10,NNW,344,0.0,0.0,76,0.00,,OVC075,0.00,VWS V14.01,2013-01-22 02:56:00,
2013-01-21 22:01:00,59.8,52.2,30.10,NNW,344,0.0,0.0,76,0.00,,OVC042,0.00,VWS V14.01,2013-01-22 03:01:00,
2013-01-21 22:06:00,59.8,52.2,30.09,NNW,347,0.0,2.0,76,0.00,,OVC042,0.00,VWS V14.01,2013-01-22 03:06:00,
2013-01-21 22:11:00,59.8,52.2,30.10,NNW,346,0.0,2.0,76,0.00,,OVC042,0.00,VWS V14.01,2013-01-22 03:11:00,
2013-01-21 22:16:00,59.6,52.0,30.09,NNW,346,0.0,2.0,76,0.00,,OVC042,0.00,VWS V14.01,2013-01-22 03:16:00,
2013-01-21 22:21:00,59.4,51.8,30.10,NNW,346,0.0,2.0,76,0.00,,OVC042,0.00,VWS V14.01,2013-01-22 03:21:00,
2013-01-21 22:26:00,59.3,51.8,30.10,NNW,347,0.0,2.0,76,0.00,,OVC042,0.00,VWS V14.01,2013-01-22 03:26:00,
2013-01-21 22:31:00,59.2,51.7,30.10,NNW,347,0.0,0.0,76,0.00,,OVC042,0.00,VWS V14.01,2013-01-22 03:31:00,
2013-01-21 22:36:00,59.2,51.3,30.10,NNW,346,0.0,0.0,75,0.00,,OVC042,0.00,VWS V14.01,2013-01-22 03:36:00,
2013-01-21 22:41:00,59.0,51.1,30.09,NNW,347,0.0,2.0,75,0.00,,OVC042,0.00,VWS V14.01,2013-01-22 03:41:00,
2013-01-21 22:46:00,58.8,51.3,30.10,NNW,346,0.0,2.0,76,0.00,,OVC042,0.00,VWS V14.01,2013-01-22 03:46:00,
2013-01-21 22:52:00,58.7,51.2,30.09,NNW,346,0.0,2.0,76,0.00,,OVC042,0.00,VWS V14.01,2013-01-22 03:52:00,
2013-01-21 22:57:00,58.7,51.2,30.10,NNW,347,0.0,2.0,76,0.00,,OVC042,0.00,VWS V14.01,2013-01-22 03:57:00,
2013-01-21 23:02:00,58.7,50.8,30.10,North,350,2.0,5.0,75,0.00,,OVC042,0.00,VWS V14.01,2013-01-22 04:02:00,
2013-01-21 23:07:00,58.6,50.7,30.10,NNW,338,5.0,7.0,75,0.00,,OVC042,0.00,VWS V14.01,2013-01-22 04:07:00,
2013-01-21 23:12:00,58.6,50.3,30.10,NNW,334,5.0,7.0,74,0.00,,OVC042,0.00,VWS V14.01,2013-01-22 04:12:00,
2013-01-21 23:17:00,58.4,50.2,30.10,NNW,336,0.0,7.0,74,0.00,,OVC042,0.00,VWS V14.01,2013-01-22 04:17:00,
2013-01-21 23:22:00,58.2,50.0,30.10,North,351,0.0,7.0,74,0.00,,OVC042,0.00,VWS V14.01,2013-01-22 04:22:00,
2013-01-21 23:27:00,58.0,49.8,30.10,North,350,4.0,7.0,74,0.00,,OVC042,0.00,VWS V14.01,2013-01-22 04:27:00,
2013-01-21 23:32:00,57.9,49.7,30.10,NNW,345,2.0,5.0,74,0.00,,OVC042,0.00,VWS V14.01,2013-01-22 04:32:00,
2013-01-21 23:37:00,57.7,49.5,30.10,North,360,0.0,5.0,74,0.00,,OVC042,0.00,VWS V14.01,2013-01-22 04:37:00,
2013-01-21 23:42:00,57.6,49.0,30.10,North,355,0.0,7.0,73,0.00,,OVC042,0.00,VWS V14.01,2013-01-22 04:42:00,
2013-01-21 23:47:00,57.6,49.0,30.10,NNW,346,6.0,7.0,73,0.00,,OVC042,0.00,VWS V14.01,2013-01-22 04:47:00,
2013-01-21 23:52:00,57.6,49.0,30.10,North,355,5.0,8.0,73,0.00,,OVC042,0.00,VWS V14.01,2013-01-22 04:52:00,
2013-01-21 23:57:00,57.5,48.6,30.11,North,355,4.0,8.0,72,0.00,,OVC042,0.00,VWS V14.01,2013-01-22 04:57:00,